createdAt,value
2019-02-10T00:00:52.062Z,7.00
2019-02-10T00:03:20.293Z,7.00
2019-02-10T00:05:48.558Z,7.00
2019-02-10T00:08:16.808Z,6.90
2019-02-10T00:10:45.064Z,6.90
2019-02-10T00:13:29.826Z,6.90
2019-02-10T00:16:00.207Z,6.90
2019-02-10T00:18:28.480Z,6.80
2019-02-10T00:20:56.719Z,6.80
2019-02-10T00:23:24.981Z,6.80
2019-02-10T00:25:53.331Z,6.80
2019-02-10T00:28:21.582Z,6.80
2019-02-10T00:30:49.853Z,6.80
2019-02-10T00:33:18.093Z,6.80
2019-02-10T00:35:46.361Z,6.90
2019-02-10T00:38:14.627Z,7.00
2019-02-10T00:40:42.884Z,7.10
2019-02-10T00:43:11.135Z,7.10
2019-02-10T00:45:39.404Z,7.10
2019-02-10T00:48:07.725Z,7.10
2019-02-10T00:50:35.992Z,7.20
2019-02-10T00:53:04.236Z,7.30
2019-02-10T00:55:32.502Z,7.40
2019-02-10T00:58:00.853Z,7.50
2019-02-10T01:00:29.108Z,7.50
2019-02-10T01:02:57.377Z,7.60
2019-02-10T01:05:25.679Z,7.70
2019-02-10T01:07:53.966Z,7.80
2019-02-10T01:10:23.910Z,7.90
2019-02-10T01:12:52.169Z,7.90
2019-02-10T01:15:20.489Z,7.90
2019-02-10T01:17:48.769Z,8.00
2019-02-10T01:20:17.007Z,8.00
2019-02-10T01:22:45.332Z,8.00
2019-02-10T01:25:13.608Z,8.10
2019-02-10T01:27:41.896Z,8.00
2019-02-10T01:30:12.866Z,8.10
2019-02-10T01:32:41.201Z,8.10
2019-02-10T01:35:09.437Z,8.10
2019-02-10T01:37:37.688Z,8.20
2019-02-10T01:40:08.191Z,8.30
2019-02-10T01:42:36.419Z,8.30
2019-02-10T01:45:07.349Z,8.40
2019-02-10T01:47:35.565Z,8.40
2019-02-10T01:50:05.572Z,8.40
2019-02-10T01:52:33.799Z,8.40
2019-02-10T01:55:02.055Z,8.40
2019-02-10T01:57:30.310Z,8.50
2019-02-10T01:59:58.590Z,8.60
2019-02-10T02:02:26.819Z,8.60
2019-02-10T02:04:55.037Z,8.60
2019-02-10T02:07:23.371Z,8.60
2019-02-10T02:09:51.638Z,8.70
2019-02-10T02:12:19.923Z,8.80
2019-02-10T02:14:48.191Z,8.70
2019-02-10T02:17:16.437Z,8.70
2019-02-10T02:19:44.695Z,8.70
2019-02-10T02:22:12.948Z,8.70
2019-02-10T02:24:41.230Z,8.70
2019-02-10T02:27:09.467Z,8.70
2019-02-10T02:29:37.693Z,8.60
2019-02-10T02:32:05.973Z,8.60
2019-02-10T02:34:34.238Z,8.70
2019-02-10T02:37:07.882Z,8.60
2019-02-10T02:39:32.479Z,8.70
2019-02-10T02:42:00.708Z,8.70
2019-02-10T02:44:28.975Z,8.70
2019-02-10T02:46:57.215Z,8.80
2019-02-10T02:49:28.395Z,8.70
2019-02-10T02:51:56.711Z,8.70
2019-02-10T02:54:24.949Z,8.80
2019-02-10T02:56:53.205Z,8.80
2019-02-10T02:59:21.437Z,8.70
2019-02-10T03:01:49.673Z,8.70
2019-02-10T03:04:17.905Z,8.80
2019-02-10T03:06:46.221Z,8.90
2019-02-10T03:09:14.610Z,8.90
2019-02-10T03:11:42.870Z,8.90
2019-02-10T03:14:11.109Z,9.00
2019-02-10T03:16:39.362Z,9.00
2019-02-10T03:19:07.591Z,9.10
2019-02-10T03:21:35.854Z,9.00
2019-02-10T03:24:04.081Z,9.10
2019-02-10T03:26:32.362Z,9.20
2019-02-10T03:29:00.599Z,9.20
2019-02-10T03:31:28.864Z,9.20
2019-02-10T03:33:57.108Z,9.10
2019-02-10T03:36:25.367Z,9.10
2019-02-10T03:38:53.616Z,9.20
2019-02-10T03:41:21.848Z,9.10
2019-02-10T03:43:50.141Z,9.20
2019-02-10T03:46:18.437Z,9.20
2019-02-10T03:48:46.698Z,9.10
2019-02-10T03:51:34.400Z,9.10
2019-02-10T03:54:02.646Z,9.10
2019-02-10T03:56:30.877Z,9.10
2019-02-10T03:58:59.155Z,9.10
2019-02-10T04:01:27.415Z,9.00
2019-02-10T04:03:55.669Z,9.00
2019-02-10T04:06:23.910Z,9.00
2019-02-10T04:08:52.149Z,9.00
2019-02-10T04:11:20.434Z,9.00
2019-02-10T04:13:48.662Z,9.00
2019-02-10T04:16:16.889Z,9.00
2019-02-10T04:18:45.160Z,9.00
2019-02-10T04:21:13.415Z,9.00
2019-02-10T04:23:41.642Z,9.00
2019-02-10T04:26:09.886Z,9.00
2019-02-10T04:28:38.130Z,9.00
2019-02-10T04:31:06.498Z,9.00
2019-02-10T04:33:34.779Z,9.00
2019-02-10T04:36:03.120Z,9.00
2019-02-10T04:38:31.363Z,8.90
2019-02-10T04:40:59.619Z,8.80
2019-02-10T04:43:27.937Z,8.80
2019-02-10T04:45:56.150Z,8.80
2019-02-10T04:48:24.448Z,8.80
2019-02-10T04:50:52.710Z,8.80
2019-02-10T04:53:20.931Z,8.70
2019-02-10T04:56:01.622Z,8.80
2019-02-10T04:58:29.860Z,8.80
2019-02-10T05:00:58.083Z,8.80
2019-02-10T05:03:26.366Z,8.80
2019-02-10T05:05:54.679Z,8.90
2019-02-10T05:08:22.908Z,8.80
2019-02-10T05:10:51.843Z,8.90
2019-02-10T05:13:20.078Z,8.90
2019-02-10T05:15:48.352Z,8.80
2019-02-10T05:18:16.591Z,8.70
2019-02-10T05:20:44.936Z,8.60
2019-02-10T05:23:13.150Z,8.60
2019-02-10T05:25:41.383Z,8.60
2019-02-10T05:28:09.629Z,8.60
2019-02-10T05:30:37.850Z,8.70
2019-02-10T05:33:06.162Z,8.80
2019-02-10T05:35:34.424Z,8.90
2019-02-10T05:38:04.485Z,8.90
2019-02-10T05:40:32.687Z,9.00
2019-02-10T05:43:00.907Z,9.10
2019-02-10T05:45:29.133Z,9.20
2019-02-10T05:47:57.404Z,9.20
2019-02-10T05:50:25.633Z,9.20
2019-02-10T05:52:53.923Z,9.30
2019-02-10T05:55:22.235Z,9.30
2019-02-10T05:57:50.529Z,9.30
2019-02-10T06:00:20.431Z,9.40
2019-02-10T06:02:48.708Z,9.40
2019-02-10T06:05:19.751Z,9.40
2019-02-10T06:07:48.057Z,9.40
2019-02-10T06:10:21.949Z,9.40
2019-02-10T06:12:56.341Z,9.50
2019-02-10T06:15:24.562Z,9.60
2019-02-10T06:17:52.848Z,9.70
2019-02-10T06:20:21.125Z,9.70
2019-02-10T06:22:49.413Z,9.70
2019-02-10T06:25:17.694Z,9.70
2019-02-10T06:27:46.075Z,9.70
2019-02-10T06:30:14.336Z,9.70
2019-02-10T06:32:43.127Z,9.70
2019-02-10T06:35:11.465Z,9.80
2019-02-10T06:37:39.843Z,9.80
2019-02-10T06:40:09.072Z,9.80
2019-02-10T06:42:37.336Z,9.80
2019-02-10T06:45:10.344Z,9.80
2019-02-10T06:47:38.587Z,9.90
2019-02-10T06:50:07.814Z,9.90
2019-02-10T06:52:36.140Z,9.90
2019-02-10T06:55:06.480Z,9.90
2019-02-10T06:57:34.750Z,9.90
2019-02-10T07:00:04.662Z,9.80
2019-02-10T07:02:37.358Z,9.80
2019-02-10T07:05:09.059Z,9.80
2019-02-10T07:07:39.068Z,9.80
2019-02-10T07:10:07.863Z,9.80
2019-02-10T07:12:48.613Z,9.80
2019-02-10T07:15:53.439Z,9.90
2019-02-10T07:18:47.717Z,10.00
2019-02-10T07:21:16.021Z,10.00
2019-02-10T07:24:05.821Z,10.00
2019-02-10T07:26:53.816Z,10.10
2019-02-10T07:29:41.796Z,10.10
2019-02-10T07:32:11.784Z,10.10
2019-02-10T07:34:58.232Z,10.10
2019-02-10T07:37:47.384Z,10.10
2019-02-10T07:40:35.292Z,10.10
2019-02-10T07:43:09.767Z,10.10
2019-02-10T07:46:06.897Z,10.20
2019-02-10T07:48:51.397Z,10.20
2019-02-10T07:51:38.267Z,10.10
2019-02-10T07:54:26.326Z,10.00
2019-02-10T07:57:03.543Z,10.10
2019-02-10T07:59:37.680Z,10.10
2019-02-10T08:02:15.144Z,10.10
2019-02-10T08:05:06.326Z,10.00
2019-02-10T08:07:43.666Z,10.20
2019-02-10T08:10:24.222Z,10.30
2019-02-10T08:13:15.230Z,10.30
2019-02-10T08:16:09.442Z,10.30
2019-02-10T08:18:58.818Z,10.30
2019-02-10T08:21:45.386Z,10.40
2019-02-10T08:24:28.575Z,10.50
2019-02-10T08:27:00.133Z,10.30
2019-02-10T08:29:37.428Z,10.30
2019-02-10T08:32:24.911Z,10.30
2019-02-10T08:35:17.514Z,10.20
2019-02-10T08:38:15.338Z,10.10
2019-02-10T08:40:46.892Z,10.00
2019-02-10T08:43:30.566Z,10.00
2019-02-10T08:46:17.070Z,9.90
2019-02-10T08:48:57.240Z,9.90
2019-02-10T08:51:31.239Z,9.90
2019-02-10T08:53:59.554Z,9.90
2019-02-10T08:56:47.254Z,9.90
2019-02-10T08:59:15.536Z,9.90
2019-02-10T09:01:43.766Z,9.90
2019-02-10T09:04:12.031Z,10.00
2019-02-10T09:06:40.354Z,10.10
2019-02-10T09:09:08.637Z,10.10
2019-02-10T09:11:37.017Z,10.10
2019-02-10T09:14:05.316Z,10.20
2019-02-10T09:16:35.217Z,10.20
2019-02-10T09:19:03.457Z,10.30
2019-02-10T09:21:31.737Z,10.30
2019-02-10T09:23:59.996Z,10.30
2019-02-10T09:26:28.257Z,10.20
2019-02-10T09:28:56.542Z,10.30
2019-02-10T09:31:24.810Z,10.30
2019-02-10T09:33:53.095Z,10.30
2019-02-10T09:36:21.335Z,10.40
2019-02-10T09:38:49.569Z,10.40
2019-02-10T09:41:17.872Z,10.40
2019-02-10T09:43:46.143Z,10.40
2019-02-10T09:46:14.471Z,10.50
2019-02-10T09:48:42.738Z,10.60
2019-02-10T09:51:16.134Z,10.60
2019-02-10T09:53:44.413Z,10.70
2019-02-10T09:56:14.312Z,10.80
2019-02-10T09:58:45.077Z,10.80
2019-02-10T10:01:14.718Z,10.80
2019-02-10T10:03:44.815Z,10.70
2019-02-10T10:06:13.074Z,10.80
2019-02-10T10:08:41.355Z,10.80
2019-02-10T10:11:11.256Z,10.90
2019-02-10T10:13:39.575Z,10.90
2019-02-10T10:16:07.940Z,10.90
2019-02-10T10:18:36.201Z,10.90
2019-02-10T10:21:08.305Z,11.00
2019-02-10T10:23:36.618Z,10.90
2019-02-10T10:26:04.899Z,11.00
2019-02-10T10:28:33.179Z,11.00
2019-02-10T10:31:01.447Z,11.10
2019-02-10T10:33:29.736Z,11.20
2019-02-10T10:35:58.001Z,11.20
2019-02-10T10:38:26.305Z,11.20
2019-02-10T10:40:54.611Z,11.30
2019-02-10T10:43:22.855Z,11.30
2019-02-10T10:45:51.087Z,11.30
2019-02-10T10:48:19.805Z,11.10
2019-02-10T10:50:48.098Z,11.20
2019-02-10T10:53:16.371Z,11.20
2019-02-10T10:55:44.746Z,11.10
2019-02-10T10:58:13.051Z,11.00
2019-02-10T11:00:41.414Z,11.00
2019-02-10T11:03:09.671Z,11.00
2019-02-10T11:05:37.961Z,10.90
2019-02-10T11:08:06.861Z,10.90
2019-02-10T11:10:35.231Z,10.80
2019-02-10T11:13:03.590Z,10.80
2019-02-10T11:15:31.875Z,10.70
2019-02-10T11:18:00.223Z,10.60
2019-02-10T11:20:28.499Z,10.40
2019-02-10T11:22:56.851Z,10.20
2019-02-10T11:25:26.309Z,10.30
2019-02-10T11:27:54.590Z,10.40
2019-02-10T11:30:22.945Z,10.30
2019-02-10T11:32:51.242Z,10.30
2019-02-10T11:35:22.380Z,10.40
2019-02-10T11:37:50.648Z,10.50
2019-02-10T11:40:18.947Z,10.60
2019-02-10T11:42:47.174Z,10.50
2019-02-10T11:45:15.652Z,10.50
2019-02-10T11:47:43.896Z,10.50
2019-02-10T11:50:15.114Z,10.50
2019-02-10T11:52:52.460Z,10.50
2019-02-10T11:55:20.725Z,10.40
2019-02-10T11:57:49.074Z,10.40
2019-02-10T12:00:17.865Z,10.20
2019-02-10T12:02:46.338Z,10.30
2019-02-10T12:05:15.002Z,10.20
2019-02-10T12:07:43.418Z,10.10
2019-02-10T12:10:12.944Z,10.10
2019-02-10T12:12:41.279Z,10.10
2019-02-10T12:15:11.737Z,9.90
2019-02-10T12:17:40.104Z,9.90
2019-02-10T12:20:11.435Z,9.80
2019-02-10T12:22:39.671Z,9.80
2019-02-10T12:25:09.714Z,9.80
2019-02-10T12:27:37.968Z,9.70
2019-02-10T12:30:14.190Z,9.70
2019-02-10T12:32:42.438Z,9.70
2019-02-10T12:35:11.673Z,9.70
2019-02-10T12:37:39.979Z,9.60
2019-02-10T12:40:11.968Z,9.70
2019-02-10T12:42:43.010Z,9.50
2019-02-10T12:45:12.365Z,9.60
2019-02-10T12:47:40.736Z,9.60
2019-02-10T12:50:13.591Z,9.60
2019-02-10T12:52:41.864Z,9.60
2019-02-10T12:55:11.263Z,9.70
2019-02-10T12:57:39.525Z,9.70
2019-02-10T13:00:17.062Z,9.80
2019-02-10T13:02:45.748Z,9.70
2019-02-10T13:05:14.197Z,9.70
2019-02-10T13:07:42.476Z,9.70
2019-02-10T13:10:17.370Z,9.70
2019-02-10T13:12:45.178Z,9.80
2019-02-10T13:15:17.750Z,9.80
2019-02-10T13:17:46.008Z,9.80
2019-02-10T13:20:14.387Z,9.80
2019-02-10T13:22:42.795Z,9.80
2019-02-10T13:25:18.124Z,9.90
2019-02-10T13:27:46.395Z,9.90
2019-02-10T13:30:16.498Z,9.90
2019-02-10T13:32:44.902Z,9.90
2019-02-10T13:35:13.149Z,9.90
2019-02-10T13:37:41.681Z,9.80
2019-02-10T13:40:16.646Z,9.80
2019-02-10T13:42:43.394Z,9.70
2019-02-10T13:45:11.778Z,9.70
2019-02-10T13:47:40.050Z,9.70
2019-02-10T13:50:11.217Z,9.70
2019-02-10T13:52:39.614Z,9.80
2019-02-10T13:55:10.672Z,9.80
2019-02-10T13:57:38.955Z,9.80
2019-02-10T14:00:15.549Z,9.80
2019-02-10T14:02:43.843Z,9.80
2019-02-10T14:05:12.280Z,9.80
2019-02-10T14:07:40.532Z,9.70
2019-02-10T14:10:12.038Z,9.60
2019-02-10T14:12:40.325Z,9.70
2019-02-10T14:15:11.302Z,9.60
2019-02-10T14:17:39.549Z,9.60
2019-02-10T14:20:10.921Z,9.60
2019-02-10T14:22:39.176Z,9.60
2019-02-10T14:25:07.479Z,9.60
2019-02-10T14:27:35.741Z,9.60
2019-02-10T14:30:06.523Z,9.70
2019-02-10T14:32:35.725Z,9.70
2019-02-10T14:35:04.826Z,9.60
2019-02-10T14:37:33.159Z,9.60
2019-02-10T14:40:01.554Z,9.60
2019-02-10T14:42:29.806Z,9.40
2019-02-10T14:44:58.084Z,9.40
2019-02-10T14:47:26.409Z,9.30
2019-02-10T14:49:54.831Z,9.30
2019-02-10T14:52:23.160Z,9.20
2019-02-10T14:54:51.403Z,9.10
2019-02-10T14:57:19.702Z,8.90
2019-02-10T14:59:48.089Z,8.90
2019-02-10T15:02:24.343Z,8.80
2019-02-10T15:04:52.581Z,8.70
2019-02-10T15:07:25.270Z,8.60
2019-02-10T15:09:50.849Z,8.50
2019-02-10T15:12:19.119Z,8.40
2019-02-10T15:14:47.361Z,8.40
2019-02-10T15:17:15.665Z,8.40
2019-02-10T15:19:43.934Z,8.30
2019-02-10T15:22:12.167Z,8.40
2019-02-10T15:24:40.436Z,8.40
2019-02-10T15:27:08.659Z,8.50
2019-02-10T15:29:36.941Z,8.40
2019-02-10T15:32:05.253Z,8.50
2019-02-10T15:34:33.626Z,8.50
2019-02-10T15:37:01.857Z,8.30
2019-02-10T15:39:30.175Z,8.30
2019-02-10T15:41:58.395Z,8.30
2019-02-10T15:44:26.769Z,8.40
2019-02-10T15:46:54.975Z,8.30
2019-02-10T15:49:23.828Z,8.30
2019-02-10T15:51:52.190Z,8.40
2019-02-10T15:54:20.586Z,8.30
2019-02-10T15:56:48.983Z,8.30
2019-02-10T15:59:17.301Z,8.30
2019-02-10T16:01:45.553Z,8.20
2019-02-10T16:04:13.824Z,8.30
2019-02-10T16:06:42.092Z,8.20
2019-02-10T16:09:10.421Z,8.20
2019-02-10T16:11:38.784Z,8.20
2019-02-10T16:14:07.024Z,8.30
2019-02-10T16:16:38.557Z,8.30
2019-02-10T16:19:06.853Z,8.30
2019-02-10T16:21:35.150Z,8.30
2019-02-10T16:24:03.462Z,8.30
2019-02-10T16:26:31.798Z,8.20
2019-02-10T16:29:00.187Z,8.20
2019-02-10T16:31:28.462Z,8.20
2019-02-10T16:33:59.490Z,8.20
2019-02-10T16:36:27.782Z,8.20
2019-02-10T16:38:56.149Z,8.20
2019-02-10T16:41:24.608Z,8.10
2019-02-10T16:43:52.867Z,8.10
2019-02-10T16:46:21.112Z,8.10
2019-02-10T16:48:52.260Z,8.00
2019-02-10T16:51:20.667Z,8.00
2019-02-10T16:53:48.906Z,8.00
2019-02-10T16:56:17.248Z,8.00
2019-02-10T16:58:45.505Z,7.80
2019-02-10T17:01:13.760Z,7.80
2019-02-10T17:03:42.501Z,7.80
2019-02-10T17:06:10.833Z,7.70
2019-02-10T17:08:39.212Z,7.50
2019-02-10T17:11:14.277Z,7.40
2019-02-10T17:13:38.147Z,7.20
2019-02-10T17:16:06.485Z,7.10
2019-02-10T17:18:34.997Z,7.10
2019-02-10T17:21:03.300Z,7.00
2019-02-10T17:23:33.259Z,7.10
2019-02-10T17:26:01.879Z,7.10
2019-02-10T17:28:30.206Z,7.20
2019-02-10T17:30:58.507Z,7.10
2019-02-10T17:33:26.939Z,7.00
2019-02-10T17:35:55.296Z,7.10
2019-02-10T17:38:23.603Z,7.10
2019-02-10T17:41:00.887Z,7.10
2019-02-10T17:43:29.210Z,7.10
2019-02-10T17:45:57.446Z,7.10
2019-02-10T17:48:25.884Z,7.00
2019-02-10T17:50:54.166Z,7.00
2019-02-10T17:53:22.542Z,6.90
2019-02-10T17:55:50.789Z,6.90
2019-02-10T17:58:19.090Z,6.80
2019-02-10T18:00:49.047Z,6.80
2019-02-10T18:03:18.503Z,6.80
2019-02-10T18:05:46.886Z,6.90
2019-02-10T18:08:15.197Z,6.80
2019-02-10T18:10:43.570Z,6.90
2019-02-10T18:13:11.828Z,6.90
2019-02-10T18:15:58.350Z,6.80
2019-02-10T18:18:45.503Z,6.80
2019-02-10T18:21:21.459Z,6.80
2019-02-10T18:23:51.342Z,6.80
2019-02-10T18:26:23.719Z,6.80
2019-02-10T18:29:36.305Z,6.70
2019-02-10T18:32:04.372Z,6.80
2019-02-10T18:34:43.610Z,6.80
2019-02-10T18:37:25.385Z,6.80
2019-02-10T18:39:55.343Z,6.90
2019-02-10T18:42:26.270Z,6.90
2019-02-10T18:44:56.198Z,6.80
2019-02-10T18:47:41.546Z,6.80
2019-02-10T18:50:11.751Z,6.90
2019-02-10T18:52:47.414Z,6.80
2019-02-10T18:55:17.385Z,6.90
2019-02-10T18:57:47.272Z,6.90
2019-02-10T19:00:22.899Z,6.80
2019-02-10T19:03:11.158Z,6.90
2019-02-10T19:05:49.915Z,7.00
2019-02-10T19:08:19.820Z,7.00
2019-02-10T19:11:01.872Z,6.90
2019-02-10T19:13:37.518Z,6.80
2019-02-10T19:16:16.526Z,6.80
2019-02-10T19:19:02.586Z,6.80
2019-02-10T19:21:35.447Z,6.70
2019-02-10T19:24:11.243Z,6.80
2019-02-10T19:26:50.042Z,6.80
2019-02-10T19:29:26.056Z,6.80
2019-02-10T19:34:43.171Z,6.70
2019-02-10T19:40:00.938Z,6.70
2019-02-10T19:42:39.827Z,6.60
2019-02-10T19:45:15.438Z,6.60
2019-02-10T19:47:45.351Z,6.50
2019-02-10T19:50:36.449Z,6.50
2019-02-10T19:53:15.165Z,6.40
2019-02-10T19:55:45.246Z,6.50
2019-02-10T19:58:20.974Z,6.40
2019-02-10T20:00:56.496Z,6.50
2019-02-10T20:03:45.464Z,6.50
2019-02-10T20:06:15.469Z,6.40
2019-02-10T20:08:48.408Z,6.40
2019-02-10T20:11:36.345Z,6.30
2019-02-10T20:14:08.868Z,6.40
2019-02-10T20:16:41.506Z,6.30
2019-02-10T20:19:37.043Z,6.40
2019-02-10T20:22:10.003Z,6.40
2019-02-10T20:24:55.266Z,6.40
2019-02-10T20:27:39.917Z,6.30
2019-02-10T20:30:29.087Z,6.40
2019-02-10T20:33:08.281Z,6.50
2019-02-10T20:35:54.487Z,6.40
2019-02-10T20:38:27.375Z,6.50
2019-02-10T20:41:02.762Z,6.40
2019-02-10T20:43:32.761Z,6.40
2019-02-10T20:46:08.515Z,6.40
2019-02-10T20:48:41.441Z,6.50
2019-02-10T20:51:11.322Z,6.40
2019-02-10T20:53:50.717Z,6.40
2019-02-10T20:56:29.386Z,6.40
2019-02-10T20:58:59.280Z,6.30
2019-02-10T21:01:29.192Z,6.30
2019-02-10T21:03:59.134Z,6.20
2019-02-10T21:09:19.929Z,6.20
2019-02-10T21:12:06.032Z,6.30
2019-02-10T21:14:42.003Z,6.20
2019-02-10T21:17:17.406Z,6.20
2019-02-10T21:19:59.605Z,6.10
2019-02-10T21:22:47.744Z,6.20
2019-02-10T21:25:35.810Z,6.10
2019-02-10T21:28:08.423Z,6.10
2019-02-10T21:30:44.242Z,6.10
2019-02-10T21:33:17.058Z,6.10
2019-02-10T21:36:03.523Z,6.30
2019-02-10T21:38:42.204Z,6.20
2019-02-10T21:41:29.546Z,6.10
2019-02-10T21:44:11.523Z,6.10
2019-02-10T21:46:59.359Z,6.10
2019-02-10T21:49:27.621Z,6.10
2019-02-10T21:51:55.846Z,6.10
2019-02-10T21:54:24.130Z,6.10
2019-02-10T21:56:55.088Z,6.10
2019-02-10T21:59:23.331Z,6.20
2019-02-10T22:01:53.793Z,6.10
2019-02-10T22:04:21.548Z,6.10
2019-02-10T22:06:49.802Z,6.20
2019-02-10T22:09:18.033Z,6.20
2019-02-10T22:11:46.310Z,6.20
2019-02-10T22:14:14.638Z,6.20
2019-02-10T22:16:42.904Z,6.20
2019-02-10T22:19:11.151Z,6.10
2019-02-10T22:21:39.478Z,6.10
2019-02-10T22:24:07.738Z,6.20
2019-02-10T22:26:37.655Z,6.20
2019-02-10T22:29:05.868Z,6.20
2019-02-10T22:31:34.154Z,6.30
2019-02-10T22:34:02.410Z,6.30
2019-02-10T22:36:30.679Z,6.20
2019-02-10T22:38:58.926Z,6.20
2019-02-10T22:41:27.168Z,6.10
2019-02-10T22:43:55.438Z,6.10
2019-02-10T22:46:23.686Z,6.10
2019-02-10T22:48:51.948Z,6.00
2019-02-10T22:51:20.217Z,6.00
2019-02-10T22:53:48.439Z,6.00
2019-02-10T22:56:16.697Z,5.90
2019-02-10T22:58:45.034Z,5.90
2019-02-10T23:01:13.286Z,5.90
2019-02-10T23:03:41.550Z,5.80
2019-02-10T23:06:09.964Z,5.80
2019-02-10T23:08:41.623Z,5.70
2019-02-10T23:11:09.885Z,5.70
2019-02-10T23:13:38.217Z,5.70
2019-02-10T23:16:06.424Z,5.70
2019-02-10T23:18:34.724Z,5.70
2019-02-10T23:21:02.962Z,5.70
2019-02-10T23:23:31.235Z,5.60
2019-02-10T23:25:59.504Z,5.70
2019-02-10T23:28:27.734Z,5.70
2019-02-10T23:30:56.071Z,5.70
2019-02-10T23:33:24.314Z,5.70
2019-02-10T23:35:52.543Z,5.70
2019-02-10T23:38:20.795Z,5.60
2019-02-10T23:40:49.068Z,5.60
2019-02-10T23:43:17.345Z,5.70
2019-02-10T23:45:45.615Z,5.70
2019-02-10T23:48:13.918Z,5.70
2019-02-10T23:50:42.151Z,5.70
2019-02-10T23:53:10.401Z,5.60
2019-02-10T23:55:38.653Z,5.60
2019-02-10T23:58:06.998Z,5.60
